sensor_id;sensor_type;location;lat;lon;timestamp;temperature;humidity
78520;SHT31;67818;51.986;5.648;2023-11-22T00:00:06;6.2;80.2
78520;SHT31;67818;51.986;5.648;2023-11-22T00:02:36;6.2;80.0
78520;SHT31;67818;51.986;5.648;2023-11-22T00:05:06;6.2;79.8
78520;SHT31;67818;51.986;5.648;2023-11-22T00:07:37;6.2;79.6
78520;SHT31;67818;51.986;5.648;2023-11-22T00:10:07;6.2;79.6
78520;SHT31;67818;51.986;5.648;2023-11-22T00:12:38;6.1;79.4
78520;SHT31;67818;51.986;5.648;2023-11-22T00:15:11;6.1;79.4
78520;SHT31;67818;51.986;5.648;2023-11-22T00:17:44;6.1;79.6
78520;SHT31;67818;51.986;5.648;2023-11-22T00:20:15;6.1;79.6
78520;SHT31;67818;51.986;5.648;2023-11-22T00:22:44;6.0;79.4
78520;SHT31;67818;51.986;5.648;2023-11-22T00:25:14;6.0;79.5
78520;SHT31;67818;51.986;5.648;2023-11-22T00:27:42;5.9;79.5
78520;SHT31;67818;51.986;5.648;2023-11-22T00:30:12;5.9;79.4
78520;SHT31;67818;51.986;5.648;2023-11-22T00:32:41;5.9;79.4
78520;SHT31;67818;51.986;5.648;2023-11-22T00:35:10;5.8;79.3
78520;SHT31;67818;51.986;5.648;2023-11-22T00:37:38;5.8;79.2
78520;SHT31;67818;51.986;5.648;2023-11-22T00:40:08;5.7;79.6
78520;SHT31;67818;51.986;5.648;2023-11-22T00:42:40;5.7;79.8
78520;SHT31;67818;51.986;5.648;2023-11-22T00:45:10;5.6;79.8
78520;SHT31;67818;51.986;5.648;2023-11-22T00:47:41;5.6;79.9
78520;SHT31;67818;51.986;5.648;2023-11-22T00:50:10;5.5;79.7
78520;SHT31;67818;51.986;5.648;2023-11-22T00:52:39;5.5;79.7
78520;SHT31;67818;51.986;5.648;2023-11-22T00:55:11;5.4;79.3
78520;SHT31;67818;51.986;5.648;2023-11-22T00:57:39;5.4;79.4
78520;SHT31;67818;51.986;5.648;2023-11-22T01:00:11;5.4;79.2
78520;SHT31;67818;51.986;5.648;2023-11-22T01:02:43;5.3;79.2
78520;SHT31;67818;51.986;5.648;2023-11-22T01:05:12;5.3;79.1
78520;SHT31;67818;51.986;5.648;2023-11-22T01:07:42;5.3;79.3
78520;SHT31;67818;51.986;5.648;2023-11-22T01:10:11;5.2;79.3
78520;SHT31;67818;51.986;5.648;2023-11-22T01:12:42;5.2;79.2
78520;SHT31;67818;51.986;5.648;2023-11-22T01:15:11;5.2;79.0
78520;SHT31;67818;51.986;5.648;2023-11-22T01:17:40;5.1;78.8
78520;SHT31;67818;51.986;5.648;2023-11-22T01:20:09;5.1;78.6
78520;SHT31;67818;51.986;5.648;2023-11-22T01:22:42;5.0;78.7
78520;SHT31;67818;51.986;5.648;2023-11-22T01:25:11;5.0;78.8
78520;SHT31;67818;51.986;5.648;2023-11-22T01:27:40;4.9;78.8
78520;SHT31;67818;51.986;5.648;2023-11-22T01:30:12;4.9;79.1
78520;SHT31;67818;51.986;5.648;2023-11-22T01:32:41;4.8;79.9
78520;SHT31;67818;51.986;5.648;2023-11-22T01:35:11;4.8;80.8
78520;SHT31;67818;51.986;5.648;2023-11-22T01:37:40;4.8;81.2
78520;SHT31;67818;51.986;5.648;2023-11-22T01:40:09;4.8;81.1
78520;SHT31;67818;51.986;5.648;2023-11-22T01:42:39;4.8;81.3
78520;SHT31;67818;51.986;5.648;2023-11-22T01:45:09;4.8;80.8
78520;SHT31;67818;51.986;5.648;2023-11-22T01:47:40;4.8;80.2
78520;SHT31;67818;51.986;5.648;2023-11-22T01:50:12;4.8;80.0
78520;SHT31;67818;51.986;5.648;2023-11-22T01:52:45;4.8;79.9
78520;SHT31;67818;51.986;5.648;2023-11-22T01:55:14;4.7;79.9
78520;SHT31;67818;51.986;5.648;2023-11-22T01:57:44;4.7;79.8
78520;SHT31;67818;51.986;5.648;2023-11-22T02:00:14;4.7;79.4
78520;SHT31;67818;51.986;5.648;2023-11-22T02:02:43;4.7;79.0
78520;SHT31;67818;51.986;5.648;2023-11-22T02:05:11;4.6;79.0
78520;SHT31;67818;51.986;5.648;2023-11-22T02:07:40;4.6;78.9
78520;SHT31;67818;51.986;5.648;2023-11-22T02:10:10;4.6;78.8
78520;SHT31;67818;51.986;5.648;2023-11-22T02:12:40;4.6;78.7
78520;SHT31;67818;51.986;5.648;2023-11-22T02:15:10;4.6;78.7
78520;SHT31;67818;51.986;5.648;2023-11-22T02:17:39;4.6;78.7
78520;SHT31;67818;51.986;5.648;2023-11-22T02:20:11;4.5;78.6
78520;SHT31;67818;51.986;5.648;2023-11-22T02:22:50;4.5;78.6
78520;SHT31;67818;51.986;5.648;2023-11-22T02:25:19;4.5;78.3
78520;SHT31;67818;51.986;5.648;2023-11-22T02:27:48;4.4;78.4
78520;SHT31;67818;51.986;5.648;2023-11-22T02:30:16;4.4;78.8
78520;SHT31;67818;51.986;5.648;2023-11-22T02:32:45;4.4;78.9
78520;SHT31;67818;51.986;5.648;2023-11-22T02:35:14;4.4;79.0
78520;SHT31;67818;51.986;5.648;2023-11-22T02:37:44;4.4;78.6
78520;SHT31;67818;51.986;5.648;2023-11-22T02:40:17;4.3;78.7
78520;SHT31;67818;51.986;5.648;2023-11-22T02:42:48;4.3;78.7
78520;SHT31;67818;51.986;5.648;2023-11-22T02:45:19;4.3;78.6
78520;SHT31;67818;51.986;5.648;2023-11-22T02:47:50;4.3;78.5
78520;SHT31;67818;51.986;5.648;2023-11-22T02:50:19;4.3;78.3
78520;SHT31;67818;51.986;5.648;2023-11-22T02:52:47;4.3;78.2
78520;SHT31;67818;51.986;5.648;2023-11-22T02:55:17;4.3;78.4
78520;SHT31;67818;51.986;5.648;2023-11-22T02:57:46;4.3;78.1
78520;SHT31;67818;51.986;5.648;2023-11-22T03:00:15;4.2;77.9
78520;SHT31;67818;51.986;5.648;2023-11-22T03:02:45;4.2;77.6
78520;SHT31;67818;51.986;5.648;2023-11-22T03:05:14;4.2;77.7
78520;SHT31;67818;51.986;5.648;2023-11-22T03:07:45;4.1;78.0
78520;SHT31;67818;51.986;5.648;2023-11-22T03:10:14;4.1;78.1
78520;SHT31;67818;51.986;5.648;2023-11-22T03:12:45;4.0;77.9
78520;SHT31;67818;51.986;5.648;2023-11-22T03:15:14;4.0;78.0
78520;SHT31;67818;51.986;5.648;2023-11-22T03:17:44;3.9;78.6
78520;SHT31;67818;51.986;5.648;2023-11-22T03:20:15;3.9;78.9
78520;SHT31;67818;51.986;5.648;2023-11-22T03:22:45;3.9;78.9
78520;SHT31;67818;51.986;5.648;2023-11-22T03:25:16;3.9;78.8
78520;SHT31;67818;51.986;5.648;2023-11-22T03:27:45;3.9;78.8
78520;SHT31;67818;51.986;5.648;2023-11-22T03:30:13;3.9;78.7
78520;SHT31;67818;51.986;5.648;2023-11-22T03:32:42;4.0;79.0
78520;SHT31;67818;51.986;5.648;2023-11-22T03:35:13;4.0;78.8
78520;SHT31;67818;51.986;5.648;2023-11-22T03:37:46;4.1;78.5
78520;SHT31;67818;51.986;5.648;2023-11-22T03:40:16;4.1;77.8
78520;SHT31;67818;51.986;5.648;2023-11-22T03:42:46;4.2;77.5
78520;SHT31;67818;51.986;5.648;2023-11-22T03:45:14;4.2;77.1
78520;SHT31;67818;51.986;5.648;2023-11-22T03:47:43;4.2;77.1
78520;SHT31;67818;51.986;5.648;2023-11-22T03:50:11;4.2;77.4
78520;SHT31;67818;51.986;5.648;2023-11-22T03:52:41;4.3;77.1
78520;SHT31;67818;51.986;5.648;2023-11-22T03:55:13;4.3;76.9
78520;SHT31;67818;51.986;5.648;2023-11-22T03:57:41;4.3;76.5
78520;SHT31;67818;51.986;5.648;2023-11-22T04:00:13;4.4;76.3
78520;SHT31;67818;51.986;5.648;2023-11-22T04:02:43;4.4;76.0
78520;SHT31;67818;51.986;5.648;2023-11-22T04:05:12;4.4;75.1
78520;SHT31;67818;51.986;5.648;2023-11-22T04:07:41;4.3;75.0
78520;SHT31;67818;51.986;5.648;2023-11-22T04:10:10;4.3;75.0
78520;SHT31;67818;51.986;5.648;2023-11-22T04:12:38;4.2;75.2
78520;SHT31;67818;51.986;5.648;2023-11-22T04:15:10;4.1;75.6
78520;SHT31;67818;51.986;5.648;2023-11-22T04:17:39;4.0;75.9
78520;SHT31;67818;51.986;5.648;2023-11-22T04:20:09;3.9;76.1
78520;SHT31;67818;51.986;5.648;2023-11-22T04:22:42;3.8;76.2
78520;SHT31;67818;51.986;5.648;2023-11-22T04:25:12;3.8;76.5
78520;SHT31;67818;51.986;5.648;2023-11-22T04:27:42;3.7;76.7
78520;SHT31;67818;51.986;5.648;2023-11-22T04:30:12;3.6;76.8
78520;SHT31;67818;51.986;5.648;2023-11-22T04:32:43;3.6;76.8
78520;SHT31;67818;51.986;5.648;2023-11-22T04:35:14;3.5;77.0
78520;SHT31;67818;51.986;5.648;2023-11-22T04:37:42;3.4;77.2
78520;SHT31;67818;51.986;5.648;2023-11-22T04:40:13;3.4;77.3
78520;SHT31;67818;51.986;5.648;2023-11-22T04:42:42;3.3;77.5
78520;SHT31;67818;51.986;5.648;2023-11-22T04:45:12;3.3;77.3
78520;SHT31;67818;51.986;5.648;2023-11-22T04:47:40;3.2;77.3
78520;SHT31;67818;51.986;5.648;2023-11-22T04:50:10;3.2;77.3
78520;SHT31;67818;51.986;5.648;2023-11-22T04:52:39;3.1;77.5
78520;SHT31;67818;51.986;5.648;2023-11-22T04:55:08;3.1;77.8
78520;SHT31;67818;51.986;5.648;2023-11-22T04:57:37;3.0;77.9
78520;SHT31;67818;51.986;5.648;2023-11-22T05:00:07;3.0;78.1
78520;SHT31;67818;51.986;5.648;2023-11-22T05:02:38;3.0;78.4
78520;SHT31;67818;51.986;5.648;2023-11-22T05:05:08;2.9;78.5
78520;SHT31;67818;51.986;5.648;2023-11-22T05:07:38;2.9;78.4
78520;SHT31;67818;51.986;5.648;2023-11-22T05:10:08;2.8;78.6
78520;SHT31;67818;51.986;5.648;2023-11-22T05:12:38;2.8;78.7
78520;SHT31;67818;51.986;5.648;2023-11-22T05:15:08;2.8;78.7
78520;SHT31;67818;51.986;5.648;2023-11-22T05:17:40;2.8;79.0
78520;SHT31;67818;51.986;5.648;2023-11-22T05:20:12;2.7;79.5
78520;SHT31;67818;51.986;5.648;2023-11-22T05:22:41;2.7;79.7
78520;SHT31;67818;51.986;5.648;2023-11-22T05:25:09;2.7;80.0
78520;SHT31;67818;51.986;5.648;2023-11-22T05:27:38;2.7;80.4
78520;SHT31;67818;51.986;5.648;2023-11-22T05:30:08;2.8;80.5
78520;SHT31;67818;51.986;5.648;2023-11-22T05:32:41;2.8;80.5
78520;SHT31;67818;51.986;5.648;2023-11-22T05:35:12;2.8;80.4
78520;SHT31;67818;51.986;5.648;2023-11-22T05:37:41;2.8;80.6
78520;SHT31;67818;51.986;5.648;2023-11-22T05:40:13;2.9;80.6
78520;SHT31;67818;51.986;5.648;2023-11-22T05:42:42;2.9;80.6
78520;SHT31;67818;51.986;5.648;2023-11-22T05:45:12;3.0;80.7
78520;SHT31;67818;51.986;5.648;2023-11-22T05:47:41;3.0;80.9
78520;SHT31;67818;51.986;5.648;2023-11-22T05:50:10;3.0;80.8
78520;SHT31;67818;51.986;5.648;2023-11-22T05:52:42;3.1;80.9
78520;SHT31;67818;51.986;5.648;2023-11-22T05:55:12;3.2;80.8
78520;SHT31;67818;51.986;5.648;2023-11-22T05:57:42;3.2;80.7
78520;SHT31;67818;51.986;5.648;2023-11-22T06:00:12;3.3;80.6
78520;SHT31;67818;51.986;5.648;2023-11-22T06:02:42;3.3;80.4
78520;SHT31;67818;51.986;5.648;2023-11-22T06:05:13;3.3;80.6
78520;SHT31;67818;51.986;5.648;2023-11-22T06:07:42;3.4;80.4
78520;SHT31;67818;51.986;5.648;2023-11-22T06:10:11;3.4;80.5
78520;SHT31;67818;51.986;5.648;2023-11-22T06:12:41;3.5;80.6
78520;SHT31;67818;51.986;5.648;2023-11-22T06:15:11;3.5;80.6
78520;SHT31;67818;51.986;5.648;2023-11-22T06:17:40;3.6;80.8
78520;SHT31;67818;51.986;5.648;2023-11-22T06:20:10;3.6;80.9
78520;SHT31;67818;51.986;5.648;2023-11-22T06:22:39;3.7;81.1
78520;SHT31;67818;51.986;5.648;2023-11-22T06:25:10;3.7;80.5
78520;SHT31;67818;51.986;5.648;2023-11-22T06:27:39;3.8;79.7
78520;SHT31;67818;51.986;5.648;2023-11-22T06:30:09;3.8;79.4
78520;SHT31;67818;51.986;5.648;2023-11-22T06:32:38;3.8;79.2
78520;SHT31;67818;51.986;5.648;2023-11-22T06:35:10;3.8;79.0
78520;SHT31;67818;51.986;5.648;2023-11-22T06:37:41;3.8;78.9
78520;SHT31;67818;51.986;5.648;2023-11-22T06:40:11;3.9;78.5
78520;SHT31;67818;51.986;5.648;2023-11-22T06:42:40;3.9;78.8
78520;SHT31;67818;51.986;5.648;2023-11-22T06:45:10;3.9;79.0
78520;SHT31;67818;51.986;5.648;2023-11-22T06:47:39;3.9;78.6
78520;SHT31;67818;51.986;5.648;2023-11-22T06:50:10;3.9;78.6
78520;SHT31;67818;51.986;5.648;2023-11-22T06:52:40;4.0;78.9
78520;SHT31;67818;51.986;5.648;2023-11-22T06:55:10;4.0;78.5
78520;SHT31;67818;51.986;5.648;2023-11-22T06:57:38;4.0;78.4
78520;SHT31;67818;51.986;5.648;2023-11-22T07:00:08;4.0;78.9
78520;SHT31;67818;51.986;5.648;2023-11-22T07:02:37;4.0;79.8
78520;SHT31;67818;51.986;5.648;2023-11-22T07:05:07;4.0;80.4
78520;SHT31;67818;51.986;5.648;2023-11-22T07:07:37;4.0;81.0
78520;SHT31;67818;51.986;5.648;2023-11-22T07:10:08;4.0;81.5
78520;SHT31;67818;51.986;5.648;2023-11-22T07:12:37;4.0;81.9
78520;SHT31;67818;51.986;5.648;2023-11-22T07:15:07;4.0;82.3
78520;SHT31;67818;51.986;5.648;2023-11-22T07:17:36;4.1;82.7
78520;SHT31;67818;51.986;5.648;2023-11-22T07:20:06;4.1;82.7
78520;SHT31;67818;51.986;5.648;2023-11-22T07:22:43;4.1;83.1
78520;SHT31;67818;51.986;5.648;2023-11-22T07:25:12;4.2;83.1
78520;SHT31;67818;51.986;5.648;2023-11-22T07:27:46;4.2;83.1
78520;SHT31;67818;51.986;5.648;2023-11-22T07:30:17;4.3;83.0
78520;SHT31;67818;51.986;5.648;2023-11-22T07:32:49;4.3;83.1
78520;SHT31;67818;51.986;5.648;2023-11-22T07:35:18;4.4;82.8
78520;SHT31;67818;51.986;5.648;2023-11-22T07:37:48;4.4;82.7
78520;SHT31;67818;51.986;5.648;2023-11-22T07:40:20;4.5;82.6
78520;SHT31;67818;51.986;5.648;2023-11-22T07:42:49;4.5;82.7
78520;SHT31;67818;51.986;5.648;2023-11-22T07:45:18;4.6;82.6
78520;SHT31;67818;51.986;5.648;2023-11-22T07:47:47;4.7;82.5
78520;SHT31;67818;51.986;5.648;2023-11-22T07:50:16;4.7;82.4
78520;SHT31;67818;51.986;5.648;2023-11-22T07:52:46;4.8;82.2
78520;SHT31;67818;51.986;5.648;2023-11-22T07:55:17;4.9;81.9
78520;SHT31;67818;51.986;5.648;2023-11-22T07:57:45;4.9;81.4
78520;SHT31;67818;51.986;5.648;2023-11-22T08:00:18;5.0;81.2
78520;SHT31;67818;51.986;5.648;2023-11-22T08:02:47;5.0;81.0
78520;SHT31;67818;51.986;5.648;2023-11-22T08:05:16;5.1;80.8
78520;SHT31;67818;51.986;5.648;2023-11-22T08:07:47;5.1;80.6
78520;SHT31;67818;51.986;5.648;2023-11-22T08:10:16;5.2;80.4
78520;SHT31;67818;51.986;5.648;2023-11-22T08:12:49;5.2;80.4
78520;SHT31;67818;51.986;5.648;2023-11-22T08:15:17;5.3;80.4
78520;SHT31;67818;51.986;5.648;2023-11-22T08:17:49;5.4;80.6
78520;SHT31;67818;51.986;5.648;2023-11-22T08:20:18;5.6;80.3
78520;SHT31;67818;51.986;5.648;2023-11-22T08:22:50;5.7;80.0
78520;SHT31;67818;51.986;5.648;2023-11-22T08:25:21;5.9;79.5
78520;SHT31;67818;51.986;5.648;2023-11-22T08:27:49;6.1;79.1
78520;SHT31;67818;51.986;5.648;2023-11-22T08:30:20;6.2;78.4
78520;SHT31;67818;51.986;5.648;2023-11-22T08:32:50;6.4;78.1
78520;SHT31;67818;51.986;5.648;2023-11-22T08:35:20;6.5;77.6
78520;SHT31;67818;51.986;5.648;2023-11-22T08:37:56;6.6;77.3
78520;SHT31;67818;51.986;5.648;2023-11-22T08:40:25;6.7;76.5
78520;SHT31;67818;51.986;5.648;2023-11-22T08:43:01;6.8;76.1
78520;SHT31;67818;51.986;5.648;2023-11-22T08:45:31;6.9;75.4
78520;SHT31;67818;51.986;5.648;2023-11-22T08:48:01;7.0;75.0
78520;SHT31;67818;51.986;5.648;2023-11-22T08:50:29;7.0;74.7
78520;SHT31;67818;51.986;5.648;2023-11-22T08:52:58;7.0;74.7
78520;SHT31;67818;51.986;5.648;2023-11-22T08:55:27;7.0;74.2
78520;SHT31;67818;51.986;5.648;2023-11-22T08:57:57;7.0;74.0
78520;SHT31;67818;51.986;5.648;2023-11-22T09:00:26;6.9;74.1
78520;SHT31;67818;51.986;5.648;2023-11-22T09:02:58;6.9;74.5
78520;SHT31;67818;51.986;5.648;2023-11-22T09:05:26;6.8;74.9
78520;SHT31;67818;51.986;5.648;2023-11-22T09:07:55;6.7;75.4
78520;SHT31;67818;51.986;5.648;2023-11-22T09:10:25;6.7;76.0
78520;SHT31;67818;51.986;5.648;2023-11-22T09:12:53;6.6;76.6
78520;SHT31;67818;51.986;5.648;2023-11-22T09:15:25;6.6;77.1
78520;SHT31;67818;51.986;5.648;2023-11-22T09:17:56;6.6;77.5
78520;SHT31;67818;51.986;5.648;2023-11-22T09:20:25;6.6;77.1
78520;SHT31;67818;51.986;5.648;2023-11-22T09:22:54;6.6;77.3
78520;SHT31;67818;51.986;5.648;2023-11-22T09:25:24;6.6;77.6
78520;SHT31;67818;51.986;5.648;2023-11-22T09:27:55;6.6;77.7
78520;SHT31;67818;51.986;5.648;2023-11-22T09:30:26;6.6;77.9
78520;SHT31;67818;51.986;5.648;2023-11-22T09:33:03;6.6;78.4
78520;SHT31;67818;51.986;5.648;2023-11-22T09:35:34;6.6;77.5
78520;SHT31;67818;51.986;5.648;2023-11-22T09:38:04;6.6;77.5
78520;SHT31;67818;51.986;5.648;2023-11-22T09:40:36;6.6;78.2
78520;SHT31;67818;51.986;5.648;2023-11-22T09:43:07;6.7;78.0
78520;SHT31;67818;51.986;5.648;2023-11-22T09:45:36;6.7;78.8
78520;SHT31;67818;51.986;5.648;2023-11-22T09:48:15;6.7;78.4
78520;SHT31;67818;51.986;5.648;2023-11-22T09:50:54;6.8;78.6
78520;SHT31;67818;51.986;5.648;2023-11-22T09:53:31;6.8;77.9
78520;SHT31;67818;51.986;5.648;2023-11-22T09:56:01;6.9;77.4
78520;SHT31;67818;51.986;5.648;2023-11-22T09:58:34;6.9;77.7
78520;SHT31;67818;51.986;5.648;2023-11-22T10:01:03;7.0;77.1
78520;SHT31;67818;51.986;5.648;2023-11-22T10:03:31;7.0;76.4
78520;SHT31;67818;51.986;5.648;2023-11-22T10:06:00;7.1;76.3
78520;SHT31;67818;51.986;5.648;2023-11-22T10:08:31;7.1;76.6
78520;SHT31;67818;51.986;5.648;2023-11-22T10:11:00;7.1;77.1
78520;SHT31;67818;51.986;5.648;2023-11-22T10:13:28;7.2;76.8
78520;SHT31;67818;51.986;5.648;2023-11-22T10:16:10;7.2;77.2
78520;SHT31;67818;51.986;5.648;2023-11-22T10:18:44;7.3;76.9
78520;SHT31;67818;51.986;5.648;2023-11-22T10:21:21;7.3;76.3
78520;SHT31;67818;51.986;5.648;2023-11-22T10:23:51;7.4;75.2
78520;SHT31;67818;51.986;5.648;2023-11-22T10:26:23;7.4;75.2
78520;SHT31;67818;51.986;5.648;2023-11-22T10:28:55;7.5;75.3
78520;SHT31;67818;51.986;5.648;2023-11-22T10:31:24;7.5;74.1
78520;SHT31;67818;51.986;5.648;2023-11-22T10:33:54;7.5;72.7
78520;SHT31;67818;51.986;5.648;2023-11-22T10:36:24;7.6;73.1
78520;SHT31;67818;51.986;5.648;2023-11-22T10:38:54;7.6;73.2
78520;SHT31;67818;51.986;5.648;2023-11-22T10:41:24;7.6;73.9
78520;SHT31;67818;51.986;5.648;2023-11-22T10:43:53;7.6;75.2
78520;SHT31;67818;51.986;5.648;2023-11-22T10:46:29;7.7;74.0
78520;SHT31;67818;51.986;5.648;2023-11-22T10:48:58;7.7;74.8
78520;SHT31;67818;51.986;5.648;2023-11-22T10:51:31;7.8;75.0
78520;SHT31;67818;51.986;5.648;2023-11-22T10:54:01;7.9;73.4
78520;SHT31;67818;51.986;5.648;2023-11-22T10:56:38;7.9;73.1
78520;SHT31;67818;51.986;5.648;2023-11-22T10:59:10;8.0;73.2
78520;SHT31;67818;51.986;5.648;2023-11-22T11:01:44;8.0;74.2
78520;SHT31;67818;51.986;5.648;2023-11-22T11:04:20;8.1;73.3
78520;SHT31;67818;51.986;5.648;2023-11-22T11:06:54;8.1;72.2
78520;SHT31;67818;51.986;5.648;2023-11-22T11:09:29;8.1;70.3
78520;SHT31;67818;51.986;5.648;2023-11-22T11:11:59;8.1;70.2
78520;SHT31;67818;51.986;5.648;2023-11-22T11:14:30;8.1;69.2
78520;SHT31;67818;51.986;5.648;2023-11-22T11:17:00;8.1;69.7
78520;SHT31;67818;51.986;5.648;2023-11-22T11:19:29;8.1;69.5
78520;SHT31;67818;51.986;5.648;2023-11-22T11:21:59;8.1;69.5
78520;SHT31;67818;51.986;5.648;2023-11-22T11:24:28;8.1;69.7
78520;SHT31;67818;51.986;5.648;2023-11-22T11:27:04;8.1;69.6
78520;SHT31;67818;51.986;5.648;2023-11-22T11:29:36;8.1;69.9
78520;SHT31;67818;51.986;5.648;2023-11-22T11:32:11;8.1;70.0
78520;SHT31;67818;51.986;5.648;2023-11-22T11:34:49;8.2;68.2
78520;SHT31;67818;51.986;5.648;2023-11-22T11:37:21;8.2;68.9
78520;SHT31;67818;51.986;5.648;2023-11-22T11:39:49;8.2;68.8
78520;SHT31;67818;51.986;5.648;2023-11-22T11:42:18;8.2;69.2
78520;SHT31;67818;51.986;5.648;2023-11-22T11:45:08;8.2;69.2
78520;SHT31;67818;51.986;5.648;2023-11-22T11:47:37;8.2;69.5
78520;SHT31;67818;51.986;5.648;2023-11-22T11:50:06;8.2;69.3
78520;SHT31;67818;51.986;5.648;2023-11-22T11:52:38;8.2;68.9
78520;SHT31;67818;51.986;5.648;2023-11-22T11:55:08;8.2;68.5
78520;SHT31;67818;51.986;5.648;2023-11-22T11:57:38;8.1;68.7
78520;SHT31;67818;51.986;5.648;2023-11-22T12:00:09;8.1;68.5
78520;SHT31;67818;51.986;5.648;2023-11-22T12:02:40;8.1;69.7
78520;SHT31;67818;51.986;5.648;2023-11-22T12:05:11;8.1;69.8
78520;SHT31;67818;51.986;5.648;2023-11-22T12:07:40;8.1;70.0
78520;SHT31;67818;51.986;5.648;2023-11-22T12:10:09;8.0;70.2
78520;SHT31;67818;51.986;5.648;2023-11-22T12:12:38;8.0;71.0
78520;SHT31;67818;51.986;5.648;2023-11-22T12:15:09;8.0;69.9
78520;SHT31;67818;51.986;5.648;2023-11-22T12:17:39;8.0;69.8
78520;SHT31;67818;51.986;5.648;2023-11-22T12:20:11;8.0;70.1
78520;SHT31;67818;51.986;5.648;2023-11-22T12:22:42;8.0;69.8
78520;SHT31;67818;51.986;5.648;2023-11-22T12:25:13;8.0;69.7
78520;SHT31;67818;51.986;5.648;2023-11-22T12:27:44;8.0;70.8
78520;SHT31;67818;51.986;5.648;2023-11-22T12:30:29;8.0;71.2
78520;SHT31;67818;51.986;5.648;2023-11-22T12:33:00;8.1;72.4
78520;SHT31;67818;51.986;5.648;2023-11-22T12:35:31;8.2;71.9
78520;SHT31;67818;51.986;5.648;2023-11-22T12:38:03;8.3;71.1
78520;SHT31;67818;51.986;5.648;2023-11-22T12:40:33;8.3;71.0
78520;SHT31;67818;51.986;5.648;2023-11-22T12:43:03;8.5;70.5
78520;SHT31;67818;51.986;5.648;2023-11-22T12:45:34;8.6;69.6
78520;SHT31;67818;51.986;5.648;2023-11-22T12:48:22;8.7;69.8
78520;SHT31;67818;51.986;5.648;2023-11-22T12:50:52;8.8;69.6
78520;SHT31;67818;51.986;5.648;2023-11-22T12:53:23;8.8;69.6
78520;SHT31;67818;51.986;5.648;2023-11-22T12:55:55;8.9;68.9
78520;SHT31;67818;51.986;5.648;2023-11-22T12:58:25;8.9;69.3
78520;SHT31;67818;51.986;5.648;2023-11-22T13:00:55;8.9;68.9
78520;SHT31;67818;51.986;5.648;2023-11-22T13:03:27;8.9;67.2
78520;SHT31;67818;51.986;5.648;2023-11-22T13:06:00;9.0;68.1
78520;SHT31;67818;51.986;5.648;2023-11-22T13:08:30;9.0;67.2
78520;SHT31;67818;51.986;5.648;2023-11-22T13:10:59;9.0;67.3
78520;SHT31;67818;51.986;5.648;2023-11-22T13:13:28;9.0;67.4
78520;SHT31;67818;51.986;5.648;2023-11-22T13:15:57;9.0;67.1
78520;SHT31;67818;51.986;5.648;2023-11-22T13:18:29;9.0;67.4
78520;SHT31;67818;51.986;5.648;2023-11-22T13:20:57;9.0;67.5
78520;SHT31;67818;51.986;5.648;2023-11-22T13:23:27;9.0;66.7
78520;SHT31;67818;51.986;5.648;2023-11-22T13:25:56;9.0;66.7
78520;SHT31;67818;51.986;5.648;2023-11-22T13:28:24;9.0;67.2
78520;SHT31;67818;51.986;5.648;2023-11-22T13:30:53;9.0;67.2
78520;SHT31;67818;51.986;5.648;2023-11-22T13:33:22;9.0;67.4
78520;SHT31;67818;51.986;5.648;2023-11-22T13:35:51;8.9;67.4
78520;SHT31;67818;51.986;5.648;2023-11-22T13:38:19;8.9;67.1
78520;SHT31;67818;51.986;5.648;2023-11-22T13:40:48;8.9;66.8
78520;SHT31;67818;51.986;5.648;2023-11-22T13:43:16;8.8;67.3
78520;SHT31;67818;51.986;5.648;2023-11-22T13:45:48;8.8;67.8
78520;SHT31;67818;51.986;5.648;2023-11-22T13:48:17;8.7;68.4
78520;SHT31;67818;51.986;5.648;2023-11-22T13:50:45;8.7;69.0
78520;SHT31;67818;51.986;5.648;2023-11-22T13:53:14;8.6;68.8
78520;SHT31;67818;51.986;5.648;2023-11-22T13:55:46;8.6;69.1
78520;SHT31;67818;51.986;5.648;2023-11-22T13:58:15;8.6;69.1
78520;SHT31;67818;51.986;5.648;2023-11-22T14:00:45;8.5;69.3
78520;SHT31;67818;51.986;5.648;2023-11-22T14:03:14;8.5;70.0
78520;SHT31;67818;51.986;5.648;2023-11-22T14:05:43;8.4;70.7
78520;SHT31;67818;51.986;5.648;2023-11-22T14:08:14;8.4;70.8
78520;SHT31;67818;51.986;5.648;2023-11-22T14:10:43;8.4;71.3
78520;SHT31;67818;51.986;5.648;2023-11-22T14:13:12;8.3;71.4
78520;SHT31;67818;51.986;5.648;2023-11-22T14:15:40;8.3;71.6
78520;SHT31;67818;51.986;5.648;2023-11-22T14:18:09;8.3;71.4
78520;SHT31;67818;51.986;5.648;2023-11-22T14:20:37;8.3;71.8
78520;SHT31;67818;51.986;5.648;2023-11-22T14:23:06;8.2;72.1
78520;SHT31;67818;51.986;5.648;2023-11-22T14:25:34;8.2;72.0
78520;SHT31;67818;51.986;5.648;2023-11-22T14:28:04;8.2;72.3
78520;SHT31;67818;51.986;5.648;2023-11-22T14:30:35;8.2;72.4
78520;SHT31;67818;51.986;5.648;2023-11-22T14:33:04;8.2;72.9
78520;SHT31;67818;51.986;5.648;2023-11-22T14:35:35;8.2;72.7
78520;SHT31;67818;51.986;5.648;2023-11-22T14:38:03;8.2;72.9
78520;SHT31;67818;51.986;5.648;2023-11-22T14:40:33;8.2;73.3
78520;SHT31;67818;51.986;5.648;2023-11-22T14:43:04;8.2;73.4
78520;SHT31;67818;51.986;5.648;2023-11-22T14:45:33;8.2;73.6
78520;SHT31;67818;51.986;5.648;2023-11-22T14:48:04;8.2;73.4
78520;SHT31;67818;51.986;5.648;2023-11-22T14:50:34;8.1;73.2
78520;SHT31;67818;51.986;5.648;2023-11-22T14:53:02;8.1;73.6
78520;SHT31;67818;51.986;5.648;2023-11-22T14:55:32;8.1;73.4
78520;SHT31;67818;51.986;5.648;2023-11-22T14:58:07;8.1;73.5
78520;SHT31;67818;51.986;5.648;2023-11-22T15:00:36;8.1;73.3
78520;SHT31;67818;51.986;5.648;2023-11-22T15:03:05;8.1;73.4
78520;SHT31;67818;51.986;5.648;2023-11-22T15:05:34;8.0;73.4
78520;SHT31;67818;51.986;5.648;2023-11-22T15:08:02;8.0;73.5
78520;SHT31;67818;51.986;5.648;2023-11-22T15:10:33;8.0;73.8
78520;SHT31;67818;51.986;5.648;2023-11-22T15:13:02;8.0;73.7
78520;SHT31;67818;51.986;5.648;2023-11-22T15:15:31;8.0;73.4
78520;SHT31;67818;51.986;5.648;2023-11-22T15:18:00;8.0;73.5
78520;SHT31;67818;51.986;5.648;2023-11-22T15:20:31;8.0;73.6
78520;SHT31;67818;51.986;5.648;2023-11-22T15:23:00;8.0;73.4
78520;SHT31;67818;51.986;5.648;2023-11-22T15:25:29;8.0;73.6
78520;SHT31;67818;51.986;5.648;2023-11-22T15:27:58;8.0;73.6
78520;SHT31;67818;51.986;5.648;2023-11-22T15:30:27;7.9;73.5
78520;SHT31;67818;51.986;5.648;2023-11-22T15:32:55;7.9;73.5
78520;SHT31;67818;51.986;5.648;2023-11-22T15:35:24;7.8;73.9
78520;SHT31;67818;51.986;5.648;2023-11-22T15:37:52;7.8;74.4
78520;SHT31;67818;51.986;5.648;2023-11-22T15:40:21;7.7;74.9
78520;SHT31;67818;51.986;5.648;2023-11-22T15:42:50;7.7;75.2
78520;SHT31;67818;51.986;5.648;2023-11-22T15:45:18;7.6;75.2
78520;SHT31;67818;51.986;5.648;2023-11-22T15:47:48;7.6;75.5
78520;SHT31;67818;51.986;5.648;2023-11-22T15:50:18;7.5;75.7
78520;SHT31;67818;51.986;5.648;2023-11-22T15:52:47;7.5;75.9
78520;SHT31;67818;51.986;5.648;2023-11-22T15:55:16;7.5;76.1
78520;SHT31;67818;51.986;5.648;2023-11-22T15:57:45;7.4;76.5
78520;SHT31;67818;51.986;5.648;2023-11-22T16:00:15;7.4;76.7
78520;SHT31;67818;51.986;5.648;2023-11-22T16:02:45;7.4;77.0
78520;SHT31;67818;51.986;5.648;2023-11-22T16:05:14;7.4;77.3
78520;SHT31;67818;51.986;5.648;2023-11-22T16:07:43;7.4;76.9
78520;SHT31;67818;51.986;5.648;2023-11-22T16:10:11;7.4;77.0
78520;SHT31;67818;51.986;5.648;2023-11-22T16:12:42;7.4;76.8
78520;SHT31;67818;51.986;5.648;2023-11-22T16:15:13;7.4;76.7
78520;SHT31;67818;51.986;5.648;2023-11-22T16:17:41;7.4;76.4
78520;SHT31;67818;51.986;5.648;2023-11-22T16:20:11;7.4;76.2
78520;SHT31;67818;51.986;5.648;2023-11-22T16:22:41;7.4;76.1
78520;SHT31;67818;51.986;5.648;2023-11-22T16:25:12;7.3;76.1
78520;SHT31;67818;51.986;5.648;2023-11-22T16:27:43;7.3;76.0
78520;SHT31;67818;51.986;5.648;2023-11-22T16:30:12;7.3;76.4
78520;SHT31;67818;51.986;5.648;2023-11-22T16:32:41;7.3;76.5
78520;SHT31;67818;51.986;5.648;2023-11-22T16:35:10;7.3;76.7